Check out our new PWSWeather beta!
PWSweather.com
Personal Weather Stations
Station Observations
SD92115WX
El Cerrito Stoneybluff, San Diego, CA 92115

El Cerrito StoneybluffSan Diego, CA 92115

Lat: 32.754096, Lon: -117.066705

Elevation: 420

Station Type: Davis Vantage Vue

http://stoneybluff.com

High Low Average
Temperature 75.7°F24.3°C 47.7°F8.7°C 61.1°F16.2°C
Dew Point 55.4°F13.0°C 41.5°F5.3°C 47.7°F8.7°C
Winds 8.5 mph 13.7 kmh Calm Calm 2.0 mph SSW3.2 kmh SSW
Wind Gusts 17.0 mph27.4 kmh -- 4.0 mph6.4 kmh
Humidity 93% 35% 65%
Pressure 30.03 in1016.9 mb 29.89 in1012.2 mb -
Precipitation 0.00 in0.0 mm - -
Hour Temp Dew Point Humidity Winds Wind Gusts Pressure Precip Precip Rate Daily Precip Total
12:03 AM 51.8°F11.0°C 47.7°F8.7°C 86% Calm Calm -- 30.03 in1016.9 mb 0.00 in0.0 mm 0.00 in0.0 mm 0.00 in0.0 mm
12:08 AM 51.8°F11.0°C 47.7°F8.7°C 86% Calm Calm -- 30.03 in1016.9 mb 0.00 in0.0 mm 0.00 in0.0 mm 0.00 in0.0 mm
12:13 AM 51.6°F10.9°C 47.8°F8.8°C 87% Calm Calm -- 30.03 in1016.9 mb 0.00 in0.0 mm 0.00 in0.0 mm 0.00 in0.0 mm
12:18 AM 51.6°F10.9°C 47.8°F8.8°C 87% Calm Calm -- 30.03 in1016.9 mb 0.00 in0.0 mm 0.00 in0.0 mm 0.00 in0.0 mm
12:23 AM 51.6°F10.9°C 47.8°F8.8°C 87% Calm Calm -- 30.03 in1016.9 mb 0.00 in0.0 mm 0.00 in0.0 mm 0.00 in0.0 mm
12:28 AM 51.4°F10.8°C 47.7°F8.7°C 87% Calm Calm -- 30.03 in1016.9 mb 0.00 in0.0 mm 0.00 in0.0 mm 0.00 in0.0 mm
12:33 AM 51.4°F10.8°C 47.7°F8.7°C 87% Calm Calm -- 30.03 in1016.9 mb 0.00 in0.0 mm 0.00 in0.0 mm 0.00 in0.0 mm
12:38 AM 51.3°F10.7°C 47.5°F8.6°C 87% Calm Calm -- 30.03 in1016.9 mb 0.00 in0.0 mm 0.00 in0.0 mm 0.00 in0.0 mm
12:43 AM 51.1°F10.6°C 47.3°F8.5°C 87% Calm Calm -- 30.03 in1016.9 mb 0.00 in0.0 mm 0.00 in0.0 mm 0.00 in0.0 mm
12:48 AM 51.1°F10.6°C 47.7°F8.7°C 88% Calm Calm -- 30.03 in1016.9 mb 0.00 in0.0 mm 0.00 in0.0 mm 0.00 in0.0 mm
12:53 AM 51.1°F10.6°C 47.3°F8.5°C 87% Calm Calm -- 30.03 in1016.9 mb 0.00 in0.0 mm 0.00 in0.0 mm 0.00 in0.0 mm
12:58 AM 50.9°F10.5°C 47.1°F8.4°C 87% Calm Calm -- 30.03 in1016.9 mb 0.00 in0.0 mm 0.00 in0.0 mm 0.00 in0.0 mm
01:03 AM 50.7°F10.4°C 46.9°F8.3°C 87% Calm Calm -- 30.03 in1016.9 mb 0.00 in0.0 mm 0.00 in0.0 mm 0.00 in0.0 mm
01:08 AM 50.7°F10.4°C 46.9°F8.3°C 87% Calm Calm -- 30.02 in1016.6 mb 0.00 in0.0 mm 0.00 in0.0 mm 0.00 in0.0 mm
01:13 AM 50.5°F10.3°C 46.8°F8.2°C 87% Calm Calm -- 30.02 in1016.6 mb 0.00 in0.0 mm 0.00 in0.0 mm 0.00 in0.0 mm
01:18 AM 50.4°F10.2°C 46.6°F8.1°C 87% Calm Calm -- 30.02 in1016.6 mb 0.00 in0.0 mm 0.00 in0.0 mm 0.00 in0.0 mm
01:23 AM 50.2°F10.1°C 46.4°F8.0°C 87% Calm Calm -- 30.02 in1016.6 mb 0.00 in0.0 mm 0.00 in0.0 mm 0.00 in0.0 mm
01:28 AM 50.0°F10.0°C 46.6°F8.1°C 88% Calm Calm -- 30.02 in1016.6 mb 0.00 in0.0 mm 0.00 in0.0 mm 0.00 in0.0 mm
01:33 AM 50.0°F10.0°C 46.6°F8.1°C 88% Calm Calm -- 30.02 in1016.6 mb 0.00 in0.0 mm 0.00 in0.0 mm 0.00 in0.0 mm
01:38 AM 50.2°F10.1°C 46.8°F8.2°C 88% Calm Calm -- 30.01 in1016.3 mb 0.00 in0.0 mm 0.00 in0.0 mm 0.00 in0.0 mm
01:43 AM 50.0°F10.0°C 46.6°F8.1°C 88% Calm Calm -- 30.01 in1016.3 mb 0.00 in0.0 mm 0.00 in0.0 mm 0.00 in0.0 mm
01:48 AM 49.8°F9.9°C 46.4°F8.0°C 88% Calm Calm -- 30.01 in1016.3 mb 0.00 in0.0 mm 0.00 in0.0 mm 0.00 in0.0 mm
01:53 AM 50.2°F10.1°C 46.8°F8.2°C 88% Calm Calm -- 30.01 in1016.3 mb 0.00 in0.0 mm 0.00 in0.0 mm 0.00 in0.0 mm
01:58 AM 50.0°F10.0°C 46.6°F8.1°C 88% Calm Calm -- 30.01 in1016.3 mb 0.00 in0.0 mm 0.00 in0.0 mm 0.00 in0.0 mm
02:03 AM 50.0°F10.0°C 46.6°F8.1°C 88% Calm Calm -- 30.01 in1016.3 mb 0.00 in0.0 mm 0.00 in0.0 mm 0.00 in0.0 mm
02:08 AM 49.8°F9.9°C 46.4°F8.0°C 88% Calm Calm -- 30.00 in1015.9 mb 0.00 in0.0 mm 0.00 in0.0 mm 0.00 in0.0 mm
02:13 AM 49.6°F9.8°C 46.2°F7.9°C 88% Calm Calm -- 30.00 in1015.9 mb 0.00 in0.0 mm 0.00 in0.0 mm 0.00 in0.0 mm
02:18 AM 49.6°F9.8°C 46.2°F7.9°C 88% Calm Calm -- 30.00 in1015.9 mb 0.00 in0.0 mm 0.00 in0.0 mm 0.00 in0.0 mm
02:23 AM 49.6°F9.8°C 46.2°F7.9°C 88% Calm Calm -- 30.00 in1015.9 mb 0.00 in0.0 mm 0.00 in0.0 mm 0.00 in0.0 mm
02:28 AM 49.5°F9.7°C 46.0°F7.8°C 88% Calm Calm -- 30.00 in1015.9 mb 0.00 in0.0 mm 0.00 in0.0 mm 0.00 in0.0 mm
02:33 AM 49.5°F9.7°C 46.4°F8.0°C 89% Calm Calm -- 30.00 in1015.9 mb 0.00 in0.0 mm 0.00 in0.0 mm 0.00 in0.0 mm
02:38 AM 49.5°F9.7°C 46.4°F8.0°C 89% Calm Calm -- 30.00 in1015.9 mb 0.00 in0.0 mm 0.00 in0.0 mm 0.00 in0.0 mm
02:43 AM 49.3°F9.6°C 46.2°F7.9°C 89% Calm Calm -- 30.00 in1015.9 mb 0.00 in0.0 mm 0.00 in0.0 mm 0.00 in0.0 mm
02:48 AM 49.5°F9.7°C 46.4°F8.0°C 89% Calm Calm -- 29.99 in1015.6 mb 0.00 in0.0 mm 0.00 in0.0 mm 0.00 in0.0 mm
02:53 AM 49.3°F9.6°C 46.2°F7.9°C 89% Calm Calm -- 30.00 in1015.9 mb 0.00 in0.0 mm 0.00 in0.0 mm 0.00 in0.0 mm
02:58 AM 49.1°F9.5°C 46.0°F7.8°C 89% Calm Calm -- 29.99 in1015.6 mb 0.00 in0.0 mm 0.00 in0.0 mm 0.00 in0.0 mm
03:03 AM 49.1°F9.5°C 46.2°F7.9°C 90% Calm Calm -- 29.99 in1015.6 mb 0.00 in0.0 mm 0.00 in0.0 mm 0.00 in0.0 mm
03:08 AM 49.3°F9.6°C 46.2°F7.9°C 89% Calm Calm -- 29.99 in1015.6 mb 0.00 in0.0 mm 0.00 in0.0 mm 0.00 in0.0 mm
03:13 AM 49.3°F9.6°C 46.2°F7.9°C 89% Calm Calm -- 29.99 in1015.6 mb 0.00 in0.0 mm 0.00 in0.0 mm 0.00 in0.0 mm
03:18 AM 49.3°F9.6°C 46.2°F7.9°C 89% Calm Calm -- 29.99 in1015.6 mb 0.00 in0.0 mm 0.00 in0.0 mm 0.00 in0.0 mm
03:23 AM 49.3°F9.6°C 46.2°F7.9°C 89% Calm Calm -- 30.00 in1015.9 mb 0.00 in0.0 mm 0.00 in0.0 mm 0.00 in0.0 mm
03:28 AM 49.3°F9.6°C 46.2°F7.9°C 89% Calm Calm -- 29.99 in1015.6 mb 0.00 in0.0 mm 0.00 in0.0 mm 0.00 in0.0 mm
03:33 AM 49.1°F9.5°C 46.0°F7.8°C 89% Calm Calm -- 29.99 in1015.6 mb 0.00 in0.0 mm 0.00 in0.0 mm 0.00 in0.0 mm
03:38 AM 49.3°F9.6°C 46.4°F8.0°C 90% 0.2 mph E0.3 kmh E 1.1 mph1.8 kmh 29.99 in1015.6 mb 0.00 in0.0 mm 0.00 in0.0 mm 0.00 in0.0 mm
03:43 AM 49.5°F9.7°C 46.4°F8.0°C 89% Calm Calm -- 29.99 in1015.6 mb 0.00 in0.0 mm 0.00 in0.0 mm 0.00 in0.0 mm
03:48 AM 49.3°F9.6°C 46.2°F7.9°C 89% Calm Calm -- 29.99 in1015.6 mb 0.00 in0.0 mm 0.00 in0.0 mm 0.00 in0.0 mm
03:53 AM 48.9°F9.4°C 45.9°F7.7°C 89% Calm Calm -- 29.99 in1015.6 mb 0.00 in0.0 mm 0.00 in0.0 mm 0.00 in0.0 mm
03:58 AM 48.7°F9.3°C 45.9°F7.7°C 90% Calm Calm -- 29.99 in1015.6 mb 0.00 in0.0 mm 0.00 in0.0 mm 0.00 in0.0 mm
04:03 AM 48.7°F9.3°C 45.9°F7.7°C 90% Calm Calm -- 29.99 in1015.6 mb 0.00 in0.0 mm 0.00 in0.0 mm 0.00 in0.0 mm
04:08 AM 48.7°F9.3°C 45.9°F7.7°C 90% Calm Calm -- 29.99 in1015.6 mb 0.00 in0.0 mm 0.00 in0.0 mm 0.00 in0.0 mm
04:13 AM 48.6°F9.2°C 45.7°F7.6°C 90% Calm Calm -- 29.99 in1015.6 mb 0.00 in0.0 mm 0.00 in0.0 mm 0.00 in0.0 mm
04:18 AM 48.6°F9.2°C 45.7°F7.6°C 90% Calm Calm -- 29.99 in1015.6 mb 0.00 in0.0 mm 0.00 in0.0 mm 0.00 in0.0 mm
04:23 AM 48.4°F9.1°C 45.5°F7.5°C 90% Calm Calm -- 29.99 in1015.6 mb 0.00 in0.0 mm 0.00 in0.0 mm 0.00 in0.0 mm
04:28 AM 48.2°F9.0°C 45.3°F7.4°C 90% Calm Calm -- 29.99 in1015.6 mb 0.00 in0.0 mm 0.00 in0.0 mm 0.00 in0.0 mm
04:33 AM 48.0°F8.9°C 45.5°F7.5°C 91% Calm Calm -- 29.99 in1015.6 mb 0.00 in0.0 mm 0.00 in0.0 mm 0.00 in0.0 mm
04:38 AM 48.2°F9.0°C 45.7°F7.6°C 91% Calm Calm -- 29.99 in1015.6 mb 0.00 in0.0 mm 0.00 in0.0 mm 0.00 in0.0 mm
04:43 AM 48.0°F8.9°C 45.5°F7.5°C 91% Calm Calm -- 29.99 in1015.6 mb 0.00 in0.0 mm 0.00 in0.0 mm 0.00 in0.0 mm
04:48 AM 48.2°F9.0°C 45.7°F7.6°C 91% Calm Calm -- 29.99 in1015.6 mb 0.00 in0.0 mm 0.00 in0.0 mm 0.00 in0.0 mm
04:53 AM 48.2°F9.0°C 45.7°F7.6°C 91% Calm Calm -- 30.00 in1015.9 mb 0.00 in0.0 mm 0.00 in0.0 mm 0.00 in0.0 mm
04:58 AM 48.0°F8.9°C 45.5°F7.5°C 91% Calm Calm -- 30.00 in1015.9 mb 0.00 in0.0 mm 0.00 in0.0 mm 0.00 in0.0 mm
05:03 AM 47.8°F8.8°C 45.3°F7.4°C 91% Calm Calm -- 29.99 in1015.6 mb 0.00 in0.0 mm 0.00 in0.0 mm 0.00 in0.0 mm
05:08 AM 47.8°F8.8°C 45.7°F7.6°C 92% Calm Calm -- 29.99 in1015.6 mb 0.00 in0.0 mm 0.00 in0.0 mm 0.00 in0.0 mm
05:13 AM 47.8°F8.8°C 45.7°F7.6°C 92% Calm Calm -- 30.00 in1015.9 mb 0.00 in0.0 mm 0.00 in0.0 mm 0.00 in0.0 mm
05:18 AM 47.8°F8.8°C 45.3°F7.4°C 91% Calm Calm -- 29.99 in1015.6 mb 0.00 in0.0 mm 0.00 in0.0 mm 0.00 in0.0 mm
05:23 AM 47.8°F8.8°C 45.7°F7.6°C 92% Calm Calm -- 29.99 in1015.6 mb 0.00 in0.0 mm 0.00 in0.0 mm 0.00 in0.0 mm
05:28 AM 47.8°F8.8°C 45.7°F7.6°C 92% Calm Calm -- 30.00 in1015.9 mb 0.00 in0.0 mm 0.00 in0.0 mm 0.00 in0.0 mm
05:33 AM 47.7°F8.7°C 45.5°F7.5°C 92% Calm Calm -- 30.00 in1015.9 mb 0.00 in0.0 mm 0.00 in0.0 mm 0.00 in0.0 mm
05:38 AM 47.7°F8.7°C 45.5°F7.5°C 92% Calm Calm -- 29.99 in1015.6 mb 0.00 in0.0 mm 0.00 in0.0 mm 0.00 in0.0 mm
05:43 AM 47.7°F8.7°C 45.5°F7.5°C 92% Calm Calm -- 29.99 in1015.6 mb 0.00 in0.0 mm 0.00 in0.0 mm 0.00 in0.0 mm
05:48 AM 47.7°F8.7°C 45.5°F7.5°C 92% Calm Calm -- 29.99 in1015.6 mb 0.00 in0.0 mm 0.00 in0.0 mm 0.00 in0.0 mm
05:53 AM 47.7°F8.7°C 45.5°F7.5°C 92% Calm Calm -- 29.99 in1015.6 mb 0.00 in0.0 mm 0.00 in0.0 mm 0.00 in0.0 mm
05:58 AM 47.8°F8.8°C 45.9°F7.7°C 93% Calm Calm -- 29.98 in1015.2 mb 0.00 in0.0 mm 0.00 in0.0 mm 0.00 in0.0 mm
06:03 AM 47.8°F8.8°C 45.9°F7.7°C 93% Calm Calm -- 29.98 in1015.2 mb 0.00 in0.0 mm 0.00 in0.0 mm 0.00 in0.0 mm
06:08 AM 48.2°F9.0°C 46.2°F7.9°C 93% Calm Calm 1.1 mph1.8 kmh 29.98 in1015.2 mb 0.00 in0.0 mm 0.00 in0.0 mm 0.00 in0.0 mm
06:13 AM 48.4°F9.1°C 46.2°F7.9°C 92% Calm Calm -- 29.98 in1015.2 mb 0.00 in0.0 mm 0.00 in0.0 mm 0.00 in0.0 mm
06:18 AM 48.6°F9.2°C 46.4°F8.0°C 92% Calm Calm -- 29.98 in1015.2 mb 0.00 in0.0 mm 0.00 in0.0 mm 0.00 in0.0 mm
06:23 AM 49.3°F9.6°C 47.3°F8.5°C 93% Calm Calm -- 29.97 in1014.9 mb 0.00 in0.0 mm 0.00 in0.0 mm 0.00 in0.0 mm
06:28 AM 50.2°F10.1°C 48.2°F9.0°C 93% Calm Calm -- 29.97 in1014.9 mb 0.00 in0.0 mm 0.00 in0.0 mm 0.00 in0.0 mm
06:33 AM 51.1°F10.6°C 48.6°F9.2°C 91% Calm Calm -- 29.97 in1014.9 mb 0.00 in0.0 mm 0.00 in0.0 mm 0.00 in0.0 mm
06:38 AM 51.6°F10.9°C 48.7°F9.3°C 90% Calm Calm -- 29.97 in1014.9 mb 0.00 in0.0 mm 0.00 in0.0 mm 0.00 in0.0 mm
06:43 AM 52.2°F11.2°C 49.1°F9.5°C 89% Calm Calm -- 29.97 in1014.9 mb 0.00 in0.0 mm 0.00 in0.0 mm 0.00 in0.0 mm
06:48 AM 52.5°F11.4°C 48.7°F9.3°C 87% Calm Calm 1.1 mph1.8 kmh 29.97 in1014.9 mb 0.00 in0.0 mm 0.00 in0.0 mm 0.00 in0.0 mm
06:53 AM 52.5°F11.4°C 48.4°F9.1°C 86% Calm Calm 1.1 mph1.8 kmh 29.97 in1014.9 mb 0.00 in0.0 mm 0.00 in0.0 mm 0.00 in0.0 mm
06:58 AM 52.9°F11.6°C 48.6°F9.2°C 85% Calm Calm 1.1 mph1.8 kmh 29.98 in1015.2 mb 0.00 in0.0 mm 0.00 in0.0 mm 0.00 in0.0 mm
07:03 AM 53.1°F11.7°C 48.4°F9.1°C 84% Calm Calm -- 29.98 in1015.2 mb 0.00 in0.0 mm 0.00 in0.0 mm 0.00 in0.0 mm
07:08 AM 53.4°F11.9°C 48.4°F9.1°C 83% Calm Calm 1.1 mph1.8 kmh 29.98 in1015.2 mb 0.00 in0.0 mm 0.00 in0.0 mm 0.00 in0.0 mm
07:13 AM 53.8°F12.1°C 48.4°F9.1°C 82% Calm Calm 2.0 mph3.2 kmh 29.98 in1015.2 mb 0.00 in0.0 mm 0.00 in0.0 mm 0.00 in0.0 mm
07:18 AM 54.3°F12.4°C 48.6°F9.2°C 81% 0.4 mph NW0.6 kmh NW 2.0 mph3.2 kmh 29.98 in1015.2 mb 0.00 in0.0 mm 0.00 in0.0 mm 0.00 in0.0 mm
07:23 AM 54.9°F12.7°C 48.6°F9.2°C 79% Calm Calm 1.1 mph1.8 kmh 29.99 in1015.6 mb 0.00 in0.0 mm 0.00 in0.0 mm 0.00 in0.0 mm
07:28 AM 55.2°F12.9°C 48.6°F9.2°C 78% Calm Calm 2.0 mph3.2 kmh 29.99 in1015.6 mb 0.00 in0.0 mm 0.00 in0.0 mm 0.00 in0.0 mm
07:33 AM 55.8°F13.2°C 48.7°F9.3°C 77% 0.7 mph SSW1.1 kmh SSW 2.0 mph3.2 kmh 29.99 in1015.6 mb 0.00 in0.0 mm 0.00 in0.0 mm 0.00 in0.0 mm
07:38 AM 56.1°F13.4°C 48.9°F9.4°C 77% 1.1 mph WSW1.8 kmh WSW 2.0 mph3.2 kmh 29.99 in1015.6 mb 0.00 in0.0 mm 0.00 in0.0 mm 0.00 in0.0 mm
07:43 AM 56.3°F13.5°C 48.6°F9.2°C 75% Calm Calm 2.0 mph3.2 kmh 29.99 in1015.6 mb 0.00 in0.0 mm 0.00 in0.0 mm 0.00 in0.0 mm
07:48 AM 56.8°F13.8°C 48.9°F9.4°C 75% Calm Calm 1.1 mph1.8 kmh 29.99 in1015.6 mb 0.00 in0.0 mm 0.00 in0.0 mm 0.00 in0.0 mm
07:53 AM 57.6°F14.2°C 48.9°F9.4°C 73% 0.2 mph W0.3 kmh W 2.0 mph3.2 kmh 29.99 in1015.6 mb 0.00 in0.0 mm 0.00 in0.0 mm 0.00 in0.0 mm
07:58 AM 57.9°F14.4°C 48.9°F9.4°C 72% Calm Calm -- 29.99 in1015.6 mb 0.00 in0.0 mm 0.00 in0.0 mm 0.00 in0.0 mm
08:03 AM 58.8°F14.9°C 49.5°F9.7°C 71% Calm Calm -- 29.99 in1015.6 mb 0.00 in0.0 mm 0.00 in0.0 mm 0.00 in0.0 mm
08:08 AM 59.4°F15.2°C 49.6°F9.8°C 70% 0.4 mph NNW0.6 kmh NNW 4.3 mph6.9 kmh 29.99 in1015.6 mb 0.00 in0.0 mm 0.00 in0.0 mm 0.00 in0.0 mm
08:13 AM 60.1°F15.6°C 49.8°F9.9°C 69% Calm Calm 1.1 mph1.8 kmh 29.99 in1015.6 mb 0.00 in0.0 mm 0.00 in0.0 mm 0.00 in0.0 mm
08:18 AM 60.3°F15.7°C 49.6°F9.8°C 68% Calm Calm 2.0 mph3.2 kmh 29.99 in1015.6 mb 0.00 in0.0 mm 0.00 in0.0 mm 0.00 in0.0 mm
08:23 AM 61.0°F16.1°C 50.4°F10.2°C 68% Calm Calm 1.1 mph1.8 kmh 29.99 in1015.6 mb 0.00 in0.0 mm 0.00 in0.0 mm 0.00 in0.0 mm
08:28 AM 61.3°F16.3°C 50.4°F10.2°C 67% 0.7 mph WNW1.1 kmh WNW 2.0 mph3.2 kmh 29.99 in1015.6 mb 0.00 in0.0 mm 0.00 in0.0 mm 0.00 in0.0 mm
08:33 AM 61.7°F16.5°C 50.7°F10.4°C 67% Calm Calm 3.1 mph5.0 kmh 29.99 in1015.6 mb 0.00 in0.0 mm 0.00 in0.0 mm 0.00 in0.0 mm
08:38 AM 62.4°F16.9°C 50.9°F10.5°C 66% Calm Calm -- 29.99 in1015.6 mb 0.00 in0.0 mm 0.00 in0.0 mm 0.00 in0.0 mm
08:43 AM 63.0°F17.2°C 51.4°F10.8°C 66% Calm Calm -- 29.99 in1015.6 mb 0.00 in0.0 mm 0.00 in0.0 mm 0.00 in0.0 mm
08:48 AM 63.1°F17.3°C 50.4°F10.2°C 63% 1.3 mph SW2.1 kmh SW 4.3 mph6.9 kmh 29.99 in1015.6 mb 0.00 in0.0 mm 0.00 in0.0 mm 0.00 in0.0 mm
08:53 AM 63.3°F17.4°C 50.9°F10.5°C 64% 0.7 mph NW1.1 kmh NW 4.3 mph6.9 kmh 29.99 in1015.6 mb 0.00 in0.0 mm 0.00 in0.0 mm 0.00 in0.0 mm
08:58 AM 63.7°F17.6°C 50.9°F10.5°C 63% 0.9 mph NNW1.4 kmh NNW 4.3 mph6.9 kmh 29.99 in1015.6 mb 0.00 in0.0 mm 0.00 in0.0 mm 0.00 in0.0 mm
09:03 AM 63.9°F17.7°C 51.1°F10.6°C 63% Calm Calm 4.3 mph6.9 kmh 29.99 in1015.6 mb 0.00 in0.0 mm 0.00 in0.0 mm 0.00 in0.0 mm
09:08 AM 64.4°F18.0°C 52.3°F11.3°C 65% Calm Calm 3.1 mph5.0 kmh 29.99 in1015.6 mb 0.00 in0.0 mm 0.00 in0.0 mm 0.00 in0.0 mm
09:13 AM 64.9°F18.3°C 51.6°F10.9°C 62% 3.1 mph NW5.0 kmh NW 5.4 mph8.7 kmh 29.99 in1015.6 mb 0.00 in0.0 mm 0.00 in0.0 mm 0.00 in0.0 mm
09:18 AM 64.8°F18.2°C 51.8°F11.0°C 63% 1.1 mph N1.8 kmh N 5.4 mph8.7 kmh 30.00 in1015.9 mb 0.00 in0.0 mm 0.00 in0.0 mm 0.00 in0.0 mm
09:23 AM 65.1°F18.4°C 51.3°F10.7°C 61% 2.0 mph NW3.2 kmh NW 6.3 mph10.1 kmh 30.00 in1015.9 mb 0.00 in0.0 mm 0.00 in0.0 mm 0.00 in0.0 mm
09:28 AM 65.7°F18.7°C 50.9°F10.5°C 59% 2.5 mph WNW4.0 kmh WNW 5.4 mph8.7 kmh 29.99 in1015.6 mb 0.00 in0.0 mm 0.00 in0.0 mm 0.00 in0.0 mm
09:33 AM 65.7°F18.7°C 51.4°F10.8°C 60% 1.1 mph SW1.8 kmh SW 5.4 mph8.7 kmh 30.00 in1015.9 mb 0.00 in0.0 mm 0.00 in0.0 mm 0.00 in0.0 mm
09:38 AM 66.0°F18.9°C 51.3°F10.7°C 59% 0.9 mph NNW1.4 kmh NNW 5.4 mph8.7 kmh 30.00 in1015.9 mb 0.00 in0.0 mm 0.00 in0.0 mm 0.00 in0.0 mm
09:43 AM 66.4°F19.1°C 51.6°F10.9°C 59% 0.2 mph NW0.3 kmh NW 6.3 mph10.1 kmh 30.00 in1015.9 mb 0.00 in0.0 mm 0.00 in0.0 mm 0.00 in0.0 mm
09:48 AM 67.3°F19.6°C 52.0°F11.1°C 58% 1.3 mph WNW2.1 kmh WNW 3.1 mph5.0 kmh 30.00 in1015.9 mb 0.00 in0.0 mm 0.00 in0.0 mm 0.00 in0.0 mm
09:53 AM 67.5°F19.7°C 52.2°F11.2°C 58% 1.8 mph WNW2.9 kmh WNW 6.3 mph10.1 kmh 29.99 in1015.6 mb 0.00 in0.0 mm 0.00 in0.0 mm 0.00 in0.0 mm
09:58 AM 67.8°F19.9°C 51.6°F10.9°C 56% 1.1 mph SSE1.8 kmh SSE 5.4 mph8.7 kmh 29.99 in1015.6 mb 0.00 in0.0 mm 0.00 in0.0 mm 0.00 in0.0 mm
10:03 AM 68.4°F20.2°C 51.6°F10.9°C 55% 1.1 mph WNW1.8 kmh WNW 4.3 mph6.9 kmh 29.99 in1015.6 mb 0.00 in0.0 mm 0.00 in0.0 mm 0.00 in0.0 mm
10:08 AM 68.7°F20.4°C 52.3°F11.3°C 56% 0.7 mph SW1.1 kmh SW 4.3 mph6.9 kmh 29.99 in1015.6 mb 0.00 in0.0 mm 0.00 in0.0 mm 0.00 in0.0 mm
10:13 AM 69.1°F20.6°C 52.7°F11.5°C 56% 1.1 mph SW1.8 kmh SW 5.4 mph8.7 kmh 29.99 in1015.6 mb 0.00 in0.0 mm 0.00 in0.0 mm 0.00 in0.0 mm
10:18 AM 70.0°F21.1°C 52.5°F11.4°C 54% 0.7 mph N1.1 kmh N 2.0 mph3.2 kmh 29.99 in1015.6 mb 0.00 in0.0 mm 0.00 in0.0 mm 0.00 in0.0 mm
10:23 AM 70.2°F21.2°C 52.7°F11.5°C 54% 3.6 mph WSW5.8 kmh WSW 7.4 mph11.9 kmh 29.99 in1015.6 mb 0.00 in0.0 mm 0.00 in0.0 mm 0.00 in0.0 mm
10:28 AM 70.0°F21.1°C 52.5°F11.4°C 54% 2.9 mph WSW4.7 kmh WSW 6.3 mph10.1 kmh 29.98 in1015.2 mb 0.00 in0.0 mm 0.00 in0.0 mm 0.00 in0.0 mm
10:33 AM 70.2°F21.2°C 52.7°F11.5°C 54% 0.4 mph SW0.6 kmh SW 4.3 mph6.9 kmh 29.98 in1015.2 mb 0.00 in0.0 mm 0.00 in0.0 mm 0.00 in0.0 mm
10:38 AM 70.5°F21.4°C 52.0°F11.1°C 52% 4.7 mph W7.6 kmh W 7.4 mph11.9 kmh 29.98 in1015.2 mb 0.00 in0.0 mm 0.00 in0.0 mm 0.00 in0.0 mm
10:43 AM 70.7°F21.5°C 52.2°F11.2°C 52% 2.7 mph WNW4.3 kmh WNW 7.4 mph11.9 kmh 29.98 in1015.2 mb 0.00 in0.0 mm 0.00 in0.0 mm 0.00 in0.0 mm
10:48 AM 70.7°F21.5°C 53.2°F11.8°C 54% 1.8 mph WSW2.9 kmh WSW 6.3 mph10.1 kmh 29.98 in1015.2 mb 0.00 in0.0 mm 0.00 in0.0 mm 0.00 in0.0 mm
10:53 AM 71.1°F21.7°C 54.1°F12.3°C 55% 1.1 mph SW1.8 kmh SW 7.4 mph11.9 kmh 29.98 in1015.2 mb 0.00 in0.0 mm 0.00 in0.0 mm 0.00 in0.0 mm
10:58 AM 71.8°F22.1°C 54.7°F12.6°C 55% 1.6 mph SW2.6 kmh SW 6.3 mph10.1 kmh 29.98 in1015.2 mb 0.00 in0.0 mm 0.00 in0.0 mm 0.00 in0.0 mm
11:03 AM 72.0°F22.2°C 55.4°F13.0°C 56% 0.9 mph W1.4 kmh W 5.4 mph8.7 kmh 29.97 in1014.9 mb 0.00 in0.0 mm 0.00 in0.0 mm 0.00 in0.0 mm
11:08 AM 72.3°F22.4°C 55.2°F12.9°C 55% 4.0 mph WNW6.4 kmh WNW 7.4 mph11.9 kmh 29.97 in1014.9 mb 0.00 in0.0 mm 0.00 in0.0 mm 0.00 in0.0 mm
11:13 AM 72.0°F22.2°C 54.3°F12.4°C 54% 1.1 mph NW1.8 kmh NW 8.5 mph13.7 kmh 29.97 in1014.9 mb 0.00 in0.0 mm 0.00 in0.0 mm 0.00 in0.0 mm
11:18 AM 72.3°F22.4°C 54.7°F12.6°C 54% 4.3 mph NW6.9 kmh NW 8.5 mph13.7 kmh 29.97 in1014.9 mb 0.00 in0.0 mm 0.00 in0.0 mm 0.00 in0.0 mm
11:23 AM 71.8°F22.1°C 54.7°F12.6°C 55% 4.5 mph NW7.2 kmh NW 8.5 mph13.7 kmh 29.97 in1014.9 mb 0.00 in0.0 mm 0.00 in0.0 mm 0.00 in0.0 mm
11:28 AM 72.0°F22.2°C 54.9°F12.7°C 55% 3.4 mph W5.5 kmh W 10.5 mph16.9 kmh 29.97 in1014.9 mb 0.00 in0.0 mm 0.00 in0.0 mm 0.00 in0.0 mm
11:33 AM 72.0°F22.2°C 55.4°F13.0°C 56% 2.5 mph W4.0 kmh W 10.5 mph16.9 kmh 29.97 in1014.9 mb 0.00 in0.0 mm 0.00 in0.0 mm 0.00 in0.0 mm
11:38 AM 72.3°F22.4°C 54.7°F12.6°C 54% 4.7 mph NW7.6 kmh NW 9.6 mph15.4 kmh 29.96 in1014.6 mb 0.00 in0.0 mm 0.00 in0.0 mm 0.00 in0.0 mm
11:43 AM 72.9°F22.7°C 54.1°F12.3°C 52% 4.5 mph N7.2 kmh N 10.5 mph16.9 kmh 29.96 in1014.6 mb 0.00 in0.0 mm 0.00 in0.0 mm 0.00 in0.0 mm
11:48 AM 73.2°F22.9°C 53.4°F11.9°C 50% 3.4 mph N5.5 kmh N 7.4 mph11.9 kmh 29.96 in1014.6 mb 0.00 in0.0 mm 0.00 in0.0 mm 0.00 in0.0 mm
11:53 AM 73.6°F23.1°C 52.7°F11.5°C 48% 4.5 mph NW7.2 kmh NW 9.6 mph15.4 kmh 29.96 in1014.6 mb 0.00 in0.0 mm 0.00 in0.0 mm 0.00 in0.0 mm
11:58 AM 73.2°F22.9°C 51.8°F11.0°C 47% 6.0 mph WSW9.7 kmh WSW 10.5 mph16.9 kmh 29.96 in1014.6 mb 0.00 in0.0 mm 0.00 in0.0 mm 0.00 in0.0 mm
12:03 PM 73.0°F22.8°C 51.6°F10.9°C 47% 4.3 mph SW6.9 kmh SW 9.6 mph15.4 kmh 29.95 in1014.2 mb 0.00 in0.0 mm 0.00 in0.0 mm 0.00 in0.0 mm
12:08 PM 73.6°F23.1°C 50.9°F10.5°C 45% 6.7 mph WSW10.8 kmh WSW 8.5 mph13.7 kmh 29.95 in1014.2 mb 0.00 in0.0 mm 0.00 in0.0 mm 0.00 in0.0 mm
12:13 PM 73.6°F23.1°C 50.9°F10.5°C 45% 4.9 mph NW7.9 kmh NW 10.5 mph16.9 kmh 29.95 in1014.2 mb 0.00 in0.0 mm 0.00 in0.0 mm 0.00 in0.0 mm
12:18 PM 73.4°F23.0°C 50.2°F10.1°C 44% 4.7 mph NNW7.6 kmh NNW 10.5 mph16.9 kmh 29.95 in1014.2 mb 0.00 in0.0 mm 0.00 in0.0 mm 0.00 in0.0 mm
12:23 PM 73.2°F22.9°C 49.5°F9.7°C 43% 6.0 mph WNW9.7 kmh WNW 10.5 mph16.9 kmh 29.95 in1014.2 mb 0.00 in0.0 mm 0.00 in0.0 mm 0.00 in0.0 mm
12:28 PM 73.8°F23.2°C 48.6°F9.2°C 41% 6.0 mph W9.7 kmh W 10.5 mph16.9 kmh 29.94 in1013.9 mb 0.00 in0.0 mm 0.00 in0.0 mm 0.00 in0.0 mm
12:33 PM 73.9°F23.3°C 50.0°F10.0°C 43% 3.8 mph WSW6.1 kmh WSW 9.6 mph15.4 kmh 29.94 in1013.9 mb 0.00 in0.0 mm 0.00 in0.0 mm 0.00 in0.0 mm
12:38 PM 73.9°F23.3°C 48.7°F9.3°C 41% 5.6 mph NNW9.0 kmh NNW 9.6 mph15.4 kmh 29.94 in1013.9 mb 0.00 in0.0 mm 0.00 in0.0 mm 0.00 in0.0 mm
12:43 PM 72.9°F22.7°C 47.8°F8.8°C 41% 4.3 mph NW6.9 kmh NW 12.8 mph20.6 kmh 29.94 in1013.9 mb 0.00 in0.0 mm 0.00 in0.0 mm 0.00 in0.0 mm
12:48 PM 73.2°F22.9°C 48.0°F8.9°C 41% 5.8 mph NW9.3 kmh NW 11.6 mph18.7 kmh 29.94 in1013.9 mb 0.00 in0.0 mm 0.00 in0.0 mm 0.00 in0.0 mm
12:53 PM 73.0°F22.8°C 47.3°F8.5°C 40% 5.4 mph NW8.7 kmh NW 11.6 mph18.7 kmh 29.93 in1013.5 mb 0.00 in0.0 mm 0.00 in0.0 mm 0.00 in0.0 mm
12:58 PM 73.6°F23.1°C 48.4°F9.1°C 41% 5.4 mph WNW8.7 kmh WNW 10.5 mph16.9 kmh 29.93 in1013.5 mb 0.00 in0.0 mm 0.00 in0.0 mm 0.00 in0.0 mm
01:03 PM 73.2°F22.9°C 47.5°F8.6°C 40% 6.3 mph WSW10.1 kmh WSW 12.8 mph20.6 kmh 29.93 in1013.5 mb 0.00 in0.0 mm 0.00 in0.0 mm 0.00 in0.0 mm
01:08 PM 73.2°F22.9°C 47.5°F8.6°C 40% 5.4 mph WSW8.7 kmh WSW 10.5 mph16.9 kmh 29.92 in1013.2 mb 0.00 in0.0 mm 0.00 in0.0 mm 0.00 in0.0 mm
01:13 PM 73.8°F23.2°C 49.3°F9.6°C 42% 4.5 mph WNW7.2 kmh WNW 8.5 mph13.7 kmh 29.92 in1013.2 mb 0.00 in0.0 mm 0.00 in0.0 mm 0.00 in0.0 mm
01:18 PM 73.9°F23.3°C 47.5°F8.6°C 39% 8.5 mph NW13.7 kmh NW 11.6 mph18.7 kmh 29.92 in1013.2 mb 0.00 in0.0 mm 0.00 in0.0 mm 0.00 in0.0 mm
01:23 PM 73.6°F23.1°C 47.8°F8.8°C 40% 7.4 mph NW11.9 kmh NW 10.5 mph16.9 kmh 29.92 in1013.2 mb 0.00 in0.0 mm 0.00 in0.0 mm 0.00 in0.0 mm
01:28 PM 73.8°F23.2°C 49.3°F9.6°C 42% 4.5 mph NNW7.2 kmh NNW 11.6 mph18.7 kmh 29.92 in1013.2 mb 0.00 in0.0 mm 0.00 in0.0 mm 0.00 in0.0 mm
01:33 PM 73.8°F23.2°C 48.0°F8.9°C 40% 4.9 mph WNW7.9 kmh WNW 11.6 mph18.7 kmh 29.92 in1013.2 mb 0.00 in0.0 mm 0.00 in0.0 mm 0.00 in0.0 mm
01:38 PM 74.1°F23.4°C 48.9°F9.4°C 41% 5.1 mph NW8.2 kmh NW 10.5 mph16.9 kmh 29.92 in1013.2 mb 0.00 in0.0 mm 0.00 in0.0 mm 0.00 in0.0 mm
01:43 PM 74.1°F23.4°C 48.2°F9.0°C 40% 5.1 mph WNW8.2 kmh WNW 10.5 mph16.9 kmh 29.92 in1013.2 mb 0.00 in0.0 mm 0.00 in0.0 mm 0.00 in0.0 mm
01:48 PM 74.1°F23.4°C 48.9°F9.4°C 41% 4.0 mph WSW6.4 kmh WSW 8.5 mph13.7 kmh 29.91 in1012.9 mb 0.00 in0.0 mm 0.00 in0.0 mm 0.00 in0.0 mm
01:53 PM 73.9°F23.3°C 48.0°F8.9°C 40% 5.1 mph W8.2 kmh W 11.6 mph18.7 kmh 29.91 in1012.9 mb 0.00 in0.0 mm 0.00 in0.0 mm 0.00 in0.0 mm
01:58 PM 74.5°F23.6°C 47.8°F8.8°C 39% 6.0 mph NW9.7 kmh NW 10.5 mph16.9 kmh 29.91 in1012.9 mb 0.00 in0.0 mm 0.00 in0.0 mm 0.00 in0.0 mm
02:03 PM 75.2°F24.0°C 49.3°F9.6°C 40% 3.4 mph NW5.5 kmh NW 9.6 mph15.4 kmh 29.91 in1012.9 mb 0.00 in0.0 mm 0.00 in0.0 mm 0.00 in0.0 mm
02:08 PM 75.2°F24.0°C 47.8°F8.8°C 38% 5.6 mph NNW9.0 kmh NNW 9.6 mph15.4 kmh 29.91 in1012.9 mb 0.00 in0.0 mm 0.00 in0.0 mm 0.00 in0.0 mm
02:13 PM 74.7°F23.7°C 47.3°F8.5°C 38% 4.7 mph NNW7.6 kmh NNW 9.6 mph15.4 kmh 29.91 in1012.9 mb 0.00 in0.0 mm 0.00 in0.0 mm 0.00 in0.0 mm
02:18 PM 75.0°F23.9°C 46.9°F8.3°C 37% 6.5 mph N10.5 kmh N 11.6 mph18.7 kmh 29.91 in1012.9 mb 0.00 in0.0 mm 0.00 in0.0 mm 0.00 in0.0 mm
02:23 PM 75.7°F24.3°C 48.4°F9.1°C 38% 4.7 mph NW7.6 kmh NW 12.8 mph20.6 kmh 29.91 in1012.9 mb 0.00 in0.0 mm 0.00 in0.0 mm 0.00 in0.0 mm
02:28 PM 75.7°F24.3°C 48.4°F9.1°C 38% 5.1 mph W8.2 kmh W 12.8 mph20.6 kmh 29.91 in1012.9 mb 0.00 in0.0 mm 0.00 in0.0 mm 0.00 in0.0 mm
02:33 PM 75.4°F24.1°C 46.6°F8.1°C 36% 6.3 mph NW10.1 kmh NW 11.6 mph18.7 kmh 29.91 in1012.9 mb 0.00 in0.0 mm 0.00 in0.0 mm 0.00 in0.0 mm
02:38 PM 75.4°F24.1°C 47.3°F8.5°C 37% 2.9 mph WNW4.7 kmh WNW 11.6 mph18.7 kmh 29.91 in1012.9 mb 0.00 in0.0 mm 0.00 in0.0 mm 0.00 in0.0 mm
02:43 PM 75.0°F23.9°C 45.5°F7.5°C 35% 7.6 mph SW12.2 kmh SW 17.0 mph27.4 kmh 29.91 in1012.9 mb 0.00 in0.0 mm 0.00 in0.0 mm 0.00 in0.0 mm
02:48 PM 74.8°F23.8°C 46.0°F7.8°C 36% 5.4 mph W8.7 kmh W 10.5 mph16.9 kmh 29.91 in1012.9 mb 0.00 in0.0 mm 0.00 in0.0 mm 0.00 in0.0 mm
02:53 PM 75.0°F23.9°C 46.2°F7.9°C 36% 5.1 mph NW8.2 kmh NW 12.8 mph20.6 kmh 29.91 in1012.9 mb 0.00 in0.0 mm 0.00 in0.0 mm 0.00 in0.0 mm
02:58 PM 74.7°F23.7°C 45.9°F7.7°C 36% 6.3 mph WNW10.1 kmh WNW 11.6 mph18.7 kmh 29.91 in1012.9 mb 0.00 in0.0 mm 0.00 in0.0 mm 0.00 in0.0 mm
03:03 PM 74.5°F23.6°C 47.1°F8.4°C 38% 5.1 mph WNW8.2 kmh WNW 12.8 mph20.6 kmh 29.90 in1012.5 mb 0.00 in0.0 mm 0.00 in0.0 mm 0.00 in0.0 mm
03:08 PM 74.8°F23.8°C 46.8°F8.2°C 37% 5.6 mph WNW9.0 kmh WNW 10.5 mph16.9 kmh 29.91 in1012.9 mb 0.00 in0.0 mm 0.00 in0.0 mm 0.00 in0.0 mm
03:13 PM 74.5°F23.6°C 45.0°F7.2°C 35% 8.5 mph NW13.7 kmh NW 12.8 mph20.6 kmh 29.90 in1012.5 mb 0.00 in0.0 mm 0.00 in0.0 mm 0.00 in0.0 mm
03:18 PM 73.6°F23.1°C 45.7°F7.6°C 37% 5.4 mph NNW8.7 kmh NNW 12.8 mph20.6 kmh 29.90 in1012.5 mb 0.00 in0.0 mm 0.00 in0.0 mm 0.00 in0.0 mm
03:23 PM 74.3°F23.5°C 46.4°F8.0°C 37% 4.9 mph WNW7.9 kmh WNW 10.5 mph16.9 kmh 29.90 in1012.5 mb 0.00 in0.0 mm 0.00 in0.0 mm 0.00 in0.0 mm
03:28 PM 74.1°F23.4°C 46.2°F7.9°C 37% 8.5 mph N13.7 kmh N 13.9 mph22.4 kmh 29.90 in1012.5 mb 0.00 in0.0 mm 0.00 in0.0 mm 0.00 in0.0 mm
03:33 PM 73.9°F23.3°C 47.5°F8.6°C 39% 5.8 mph NW9.3 kmh NW 10.5 mph16.9 kmh 29.90 in1012.5 mb 0.00 in0.0 mm 0.00 in0.0 mm 0.00 in0.0 mm
03:38 PM 73.6°F23.1°C 47.8°F8.8°C 40% 6.5 mph N10.5 kmh N 11.6 mph18.7 kmh 29.90 in1012.5 mb 0.00 in0.0 mm 0.00 in0.0 mm 0.00 in0.0 mm
03:43 PM 72.7°F22.6°C 48.2°F9.0°C 42% 4.7 mph NNW7.6 kmh NNW 13.9 mph22.4 kmh 29.89 in1012.2 mb 0.00 in0.0 mm 0.00 in0.0 mm 0.00 in0.0 mm
03:48 PM 73.2°F22.9°C 48.7°F9.3°C 42% 4.0 mph NW6.4 kmh NW 8.5 mph13.7 kmh 29.90 in1012.5 mb 0.00 in0.0 mm 0.00 in0.0 mm 0.00 in0.0 mm
03:53 PM 73.4°F23.0°C 47.7°F8.7°C 40% 3.4 mph NE5.5 kmh NE 7.4 mph11.9 kmh 29.90 in1012.5 mb 0.00 in0.0 mm 0.00 in0.0 mm 0.00 in0.0 mm
03:58 PM 73.6°F23.1°C 48.4°F9.1°C 41% 6.0 mph NW9.7 kmh NW 10.5 mph16.9 kmh 29.90 in1012.5 mb 0.00 in0.0 mm 0.00 in0.0 mm 0.00 in0.0 mm
04:03 PM 72.7°F22.6°C 45.7°F7.6°C 38% 6.7 mph N10.8 kmh N 12.8 mph20.6 kmh 29.90 in1012.5 mb 0.00 in0.0 mm 0.00 in0.0 mm 0.00 in0.0 mm
04:08 PM 72.3°F22.4°C 47.3°F8.5°C 41% 6.7 mph WNW10.8 kmh WNW 10.5 mph16.9 kmh 29.90 in1012.5 mb 0.00 in0.0 mm 0.00 in0.0 mm 0.00 in0.0 mm
04:13 PM 71.6°F22.0°C 48.6°F9.2°C 44% 5.6 mph WNW9.0 kmh WNW 13.9 mph22.4 kmh 29.90 in1012.5 mb 0.00 in0.0 mm 0.00 in0.0 mm 0.00 in0.0 mm
04:18 PM 71.8°F22.1°C 49.3°F9.6°C 45% 4.3 mph W6.9 kmh W 10.5 mph16.9 kmh 29.90 in1012.5 mb 0.00 in0.0 mm 0.00 in0.0 mm 0.00 in0.0 mm
04:23 PM 71.8°F22.1°C 45.5°F7.5°C 39% 5.6 mph WNW9.0 kmh WNW 11.6 mph18.7 kmh 29.90 in1012.5 mb 0.00 in0.0 mm 0.00 in0.0 mm 0.00 in0.0 mm
04:28 PM 71.4°F21.9°C 45.1°F7.3°C 39% 5.8 mph NW9.3 kmh NW 11.6 mph18.7 kmh 29.90 in1012.5 mb 0.00 in0.0 mm 0.00 in0.0 mm 0.00 in0.0 mm
04:33 PM 70.9°F21.6°C 44.1°F6.7°C 38% 7.2 mph NW11.6 kmh NW 11.6 mph18.7 kmh 29.90 in1012.5 mb 0.00 in0.0 mm 0.00 in0.0 mm 0.00 in0.0 mm
04:38 PM 70.5°F21.4°C 44.4°F6.9°C 39% 5.1 mph NW8.2 kmh NW 11.6 mph18.7 kmh 29.90 in1012.5 mb 0.00 in0.0 mm 0.00 in0.0 mm 0.00 in0.0 mm
04:43 PM 70.2°F21.2°C 45.3°F7.4°C 41% 4.0 mph NW6.4 kmh NW 8.5 mph13.7 kmh 29.91 in1012.9 mb 0.00 in0.0 mm 0.00 in0.0 mm 0.00 in0.0 mm
04:48 PM 70.2°F21.2°C 46.0°F7.8°C 42% 4.5 mph NW7.2 kmh NW 9.6 mph15.4 kmh 29.91 in1012.9 mb 0.00 in0.0 mm 0.00 in0.0 mm 0.00 in0.0 mm
04:53 PM 70.3°F21.3°C 45.5°F7.5°C 41% 4.9 mph W7.9 kmh W 8.5 mph13.7 kmh 29.91 in1012.9 mb 0.00 in0.0 mm 0.00 in0.0 mm 0.00 in0.0 mm
04:58 PM 70.5°F21.4°C 45.7°F7.6°C 41% 3.1 mph WNW5.0 kmh WNW 8.5 mph13.7 kmh 29.91 in1012.9 mb 0.00 in0.0 mm 0.00 in0.0 mm 0.00 in0.0 mm
05:03 PM 70.0°F21.1°C 45.9°F7.7°C 42% 3.8 mph WNW6.1 kmh WNW 9.6 mph15.4 kmh 29.91 in1012.9 mb 0.00 in0.0 mm 0.00 in0.0 mm 0.00 in0.0 mm
05:08 PM 69.8°F21.0°C 46.2°F7.9°C 43% 4.9 mph WNW7.9 kmh WNW 8.5 mph13.7 kmh 29.91 in1012.9 mb 0.00 in0.0 mm 0.00 in0.0 mm 0.00 in0.0 mm
05:13 PM 69.6°F20.9°C 45.5°F7.5°C 42% 2.9 mph WNW4.7 kmh WNW 8.5 mph13.7 kmh 29.91 in1012.9 mb 0.00 in0.0 mm 0.00 in0.0 mm 0.00 in0.0 mm
05:18 PM 69.3°F20.7°C 45.1°F7.3°C 42% 2.9 mph NW4.7 kmh NW 8.5 mph13.7 kmh 29.91 in1012.9 mb 0.00 in0.0 mm 0.00 in0.0 mm 0.00 in0.0 mm
05:23 PM 69.1°F20.6°C 45.7°F7.6°C 43% 3.4 mph WNW5.5 kmh WNW 5.4 mph8.7 kmh 29.91 in1012.9 mb 0.00 in0.0 mm 0.00 in0.0 mm 0.00 in0.0 mm
05:28 PM 68.7°F20.4°C 46.6°F8.1°C 45% 2.0 mph WNW3.2 kmh WNW 5.4 mph8.7 kmh 29.91 in1012.9 mb 0.00 in0.0 mm 0.00 in0.0 mm 0.00 in0.0 mm
05:33 PM 68.7°F20.4°C 47.7°F8.7°C 47% 1.8 mph NW2.9 kmh NW 6.3 mph10.1 kmh 29.91 in1012.9 mb 0.00 in0.0 mm 0.00 in0.0 mm 0.00 in0.0 mm
05:38 PM 68.4°F20.2°C 45.7°F7.6°C 44% 3.1 mph NW5.0 kmh NW 6.3 mph10.1 kmh 29.92 in1013.2 mb 0.00 in0.0 mm 0.00 in0.0 mm 0.00 in0.0 mm
05:43 PM 67.6°F19.8°C 44.4°F6.9°C 43% 5.1 mph N8.2 kmh N 10.5 mph16.9 kmh 29.92 in1013.2 mb 0.00 in0.0 mm 0.00 in0.0 mm 0.00 in0.0 mm
05:48 PM 67.1°F19.5°C 45.0°F7.2°C 45% 0.7 mph NW1.1 kmh NW 6.3 mph10.1 kmh 29.92 in1013.2 mb 0.00 in0.0 mm 0.00 in0.0 mm 0.00 in0.0 mm
05:53 PM 66.7°F19.3°C 45.3°F7.4°C 46% 1.1 mph NW1.8 kmh NW 4.3 mph6.9 kmh 29.92 in1013.2 mb 0.00 in0.0 mm 0.00 in0.0 mm 0.00 in0.0 mm
05:58 PM 66.4°F19.1°C 46.0°F7.8°C 48% 1.6 mph W2.6 kmh W 4.3 mph6.9 kmh 29.92 in1013.2 mb 0.00 in0.0 mm 0.00 in0.0 mm 0.00 in0.0 mm
06:03 PM 66.0°F18.9°C 46.4°F8.0°C 49% 0.4 mph NW0.6 kmh NW 3.1 mph5.0 kmh 29.92 in1013.2 mb 0.00 in0.0 mm 0.00 in0.0 mm 0.00 in0.0 mm
06:08 PM 65.7°F18.7°C 47.1°F8.4°C 51% 2.0 mph N3.2 kmh N 5.4 mph8.7 kmh 29.92 in1013.2 mb 0.00 in0.0 mm 0.00 in0.0 mm 0.00 in0.0 mm
06:13 PM 65.1°F18.4°C 47.5°F8.6°C 53% 1.8 mph NW2.9 kmh NW 4.3 mph6.9 kmh 29.92 in1013.2 mb 0.00 in0.0 mm 0.00 in0.0 mm 0.00 in0.0 mm
06:18 PM 64.9°F18.3°C 47.8°F8.8°C 54% 2.2 mph NW3.5 kmh NW 4.3 mph6.9 kmh 29.93 in1013.5 mb 0.00 in0.0 mm 0.00 in0.0 mm 0.00 in0.0 mm
06:23 PM 64.4°F18.0°C 49.3°F9.6°C 58% 2.9 mph NW4.7 kmh NW 6.3 mph10.1 kmh 29.93 in1013.5 mb 0.00 in0.0 mm 0.00 in0.0 mm 0.00 in0.0 mm
06:28 PM 63.9°F17.7°C 50.2°F10.1°C 61% 3.6 mph N5.8 kmh N 7.4 mph11.9 kmh 29.93 in1013.5 mb 0.00 in0.0 mm 0.00 in0.0 mm 0.00 in0.0 mm
06:33 PM 63.3°F17.4°C 50.0°F10.0°C 62% 2.5 mph NW4.0 kmh NW 3.1 mph5.0 kmh 29.93 in1013.5 mb 0.00 in0.0 mm 0.00 in0.0 mm 0.00 in0.0 mm
06:38 PM 63.0°F17.2°C 49.8°F9.9°C 62% 0.2 mph NW0.3 kmh NW 4.3 mph6.9 kmh 29.93 in1013.5 mb 0.00 in0.0 mm 0.00 in0.0 mm 0.00 in0.0 mm
06:43 PM 62.8°F17.1°C 50.0°F10.0°C 63% 1.8 mph NW2.9 kmh NW 3.1 mph5.0 kmh 29.93 in1013.5 mb 0.00 in0.0 mm 0.00 in0.0 mm 0.00 in0.0 mm
06:48 PM 62.4°F16.9°C 50.0°F10.0°C 64% Calm Calm 3.1 mph5.0 kmh 29.94 in1013.9 mb 0.00 in0.0 mm 0.00 in0.0 mm 0.00 in0.0 mm
06:53 PM 62.2°F16.8°C 50.0°F10.0°C 64% Calm Calm -- 29.94 in1013.9 mb 0.00 in0.0 mm 0.00 in0.0 mm 0.00 in0.0 mm
06:58 PM 61.9°F16.6°C 50.0°F10.0°C 65% Calm Calm 1.1 mph1.8 kmh 29.94 in1013.9 mb 0.00 in0.0 mm 0.00 in0.0 mm 0.00 in0.0 mm
07:03 PM 61.5°F16.4°C 49.6°F9.8°C 65% Calm Calm 1.1 mph1.8 kmh 29.94 in1013.9 mb 0.00 in0.0 mm 0.00 in0.0 mm 0.00 in0.0 mm
07:08 PM 61.5°F16.4°C 49.6°F9.8°C 65% Calm Calm -- 29.94 in1013.9 mb 0.00 in0.0 mm 0.00 in0.0 mm 0.00 in0.0 mm
07:13 PM 61.3°F16.3°C 49.5°F9.7°C 65% 0.2 mph NNW0.3 kmh NNW 2.0 mph3.2 kmh 29.95 in1014.2 mb 0.00 in0.0 mm 0.00 in0.0 mm 0.00 in0.0 mm
07:18 PM 61.3°F16.3°C 49.5°F9.7°C 65% Calm Calm 2.0 mph3.2 kmh 29.95 in1014.2 mb 0.00 in0.0 mm 0.00 in0.0 mm 0.00 in0.0 mm
07:23 PM 61.5°F16.4°C 49.3°F9.6°C 64% Calm Calm 1.1 mph1.8 kmh 29.95 in1014.2 mb 0.00 in0.0 mm 0.00 in0.0 mm 0.00 in0.0 mm
07:28 PM 61.5°F16.4°C 48.7°F9.3°C 63% 1.3 mph NW2.1 kmh NW 3.1 mph5.0 kmh 29.95 in1014.2 mb 0.00 in0.0 mm 0.00 in0.0 mm 0.00 in0.0 mm
07:33 PM 61.5°F16.4°C 48.0°F8.9°C 61% 1.6 mph NW2.6 kmh NW 4.3 mph6.9 kmh 29.95 in1014.2 mb 0.00 in0.0 mm 0.00 in0.0 mm 0.00 in0.0 mm
07:38 PM 61.9°F16.6°C 47.5°F8.6°C 59% 0.7 mph NW1.1 kmh NW 4.3 mph6.9 kmh 29.96 in1014.6 mb 0.00 in0.0 mm 0.00 in0.0 mm 0.00 in0.0 mm
07:43 PM 61.9°F16.6°C 46.4°F8.0°C 57% 0.2 mph NE0.3 kmh NE 3.1 mph5.0 kmh 29.96 in1014.6 mb 0.00 in0.0 mm 0.00 in0.0 mm 0.00 in0.0 mm
07:48 PM 61.7°F16.5°C 45.9°F7.7°C 56% Calm Calm 2.0 mph3.2 kmh 29.95 in1014.2 mb 0.00 in0.0 mm 0.00 in0.0 mm 0.00 in0.0 mm
07:53 PM 61.5°F16.4°C 45.1°F7.3°C 55% Calm Calm 1.1 mph1.8 kmh 29.95 in1014.2 mb 0.00 in0.0 mm 0.00 in0.0 mm 0.00 in0.0 mm
07:58 PM 61.3°F16.3°C 44.6°F7.0°C 54% Calm Calm -- 29.95 in1014.2 mb 0.00 in0.0 mm 0.00 in0.0 mm 0.00 in0.0 mm
08:03 PM 61.3°F16.3°C 43.5°F6.4°C 52% Calm Calm -- 29.96 in1014.6 mb 0.00 in0.0 mm 0.00 in0.0 mm 0.00 in0.0 mm
08:08 PM 61.2°F16.2°C 43.9°F6.6°C 53% Calm Calm -- 29.96 in1014.6 mb 0.00 in0.0 mm 0.00 in0.0 mm 0.00 in0.0 mm
08:13 PM 61.0°F16.1°C 43.2°F6.2°C 52% Calm Calm -- 29.96 in1014.6 mb 0.00 in0.0 mm 0.00 in0.0 mm 0.00 in0.0 mm
08:18 PM 61.0°F16.1°C 42.8°F6.0°C 51% Calm Calm -- 29.97 in1014.9 mb 0.00 in0.0 mm 0.00 in0.0 mm 0.00 in0.0 mm
08:23 PM 61.0°F16.1°C 42.3°F5.7°C 50% Calm Calm -- 29.97 in1014.9 mb 0.00 in0.0 mm 0.00 in0.0 mm 0.00 in0.0 mm
08:28 PM 61.0°F16.1°C 42.3°F5.7°C 50% Calm Calm -- 29.96 in1014.6 mb 0.00 in0.0 mm 0.00 in0.0 mm 0.00 in0.0 mm
08:33 PM 60.8°F16.0°C 41.5°F5.3°C 49% Calm Calm -- 29.96 in1014.6 mb 0.00 in0.0 mm 0.00 in0.0 mm 0.00 in0.0 mm
08:38 PM 60.4°F15.8°C 43.2°F6.2°C 53% Calm Calm -- 29.97 in1014.9 mb 0.00 in0.0 mm 0.00 in0.0 mm 0.00 in0.0 mm
08:43 PM 60.1°F15.6°C 43.9°F6.6°C 55% Calm Calm -- 29.96 in1014.6 mb 0.00 in0.0 mm 0.00 in0.0 mm 0.00 in0.0 mm
08:48 PM 59.4°F15.2°C 43.7°F6.5°C 56% Calm Calm -- 29.96 in1014.6 mb 0.00 in0.0 mm 0.00 in0.0 mm 0.00 in0.0 mm
08:53 PM 59.2°F15.1°C 43.5°F6.4°C 56% Calm Calm -- 29.96 in1014.6 mb 0.00 in0.0 mm 0.00 in0.0 mm 0.00 in0.0 mm
08:58 PM 59.2°F15.1°C 43.9°F6.6°C 57% Calm Calm -- 29.96 in1014.6 mb 0.00 in0.0 mm 0.00 in0.0 mm 0.00 in0.0 mm
09:03 PM 58.8°F14.9°C 43.7°F6.5°C 57% Calm Calm -- 29.96 in1014.6 mb 0.00 in0.0 mm 0.00 in0.0 mm 0.00 in0.0 mm
09:08 PM 58.6°F14.8°C 43.5°F6.4°C 57% Calm Calm -- 29.96 in1014.6 mb 0.00 in0.0 mm 0.00 in0.0 mm 0.00 in0.0 mm
09:13 PM 58.8°F14.9°C 44.6°F7.0°C 59% Calm Calm -- 29.96 in1014.6 mb 0.00 in0.0 mm 0.00 in0.0 mm 0.00 in0.0 mm
09:18 PM 59.0°F15.0°C 44.2°F6.8°C 58% Calm Calm -- 29.96 in1014.6 mb 0.00 in0.0 mm 0.00 in0.0 mm 0.00 in0.0 mm
09:23 PM 59.2°F15.1°C 44.4°F6.9°C 58% Calm Calm -- 29.96 in1014.6 mb 0.00 in0.0 mm 0.00 in0.0 mm 0.00 in0.0 mm
09:28 PM 59.2°F15.1°C 44.8°F7.1°C 59% Calm Calm -- 29.96 in1014.6 mb 0.00 in0.0 mm 0.00 in0.0 mm 0.00 in0.0 mm
09:33 PM 59.0°F15.0°C 45.1°F7.3°C 60% Calm Calm -- 29.96 in1014.6 mb 0.00 in0.0 mm 0.00 in0.0 mm 0.00 in0.0 mm
09:38 PM 58.8°F14.9°C 45.3°F7.4°C 61% Calm Calm -- 29.95 in1014.2 mb 0.00 in0.0 mm 0.00 in0.0 mm 0.00 in0.0 mm
09:43 PM 58.6°F14.8°C 45.7°F7.6°C 62% Calm Calm -- 29.95 in1014.2 mb 0.00 in0.0 mm 0.00 in0.0 mm 0.00 in0.0 mm
09:48 PM 58.3°F14.6°C 45.7°F7.6°C 63% Calm Calm -- 29.95 in1014.2 mb 0.00 in0.0 mm 0.00 in0.0 mm 0.00 in0.0 mm
09:53 PM 58.1°F14.5°C 46.0°F7.8°C 64% Calm Calm -- 29.95 in1014.2 mb 0.00 in0.0 mm 0.00 in0.0 mm 0.00 in0.0 mm
09:58 PM 57.9°F14.4°C 46.2°F7.9°C 65% Calm Calm -- 29.94 in1013.9 mb 0.00 in0.0 mm 0.00 in0.0 mm 0.00 in0.0 mm
10:03 PM 57.7°F14.3°C 46.4°F8.0°C 66% Calm Calm -- 29.94 in1013.9 mb 0.00 in0.0 mm 0.00 in0.0 mm 0.00 in0.0 mm
10:08 PM 57.6°F14.2°C 46.8°F8.2°C 67% Calm Calm -- 29.93 in1013.5 mb 0.00 in0.0 mm 0.00 in0.0 mm 0.00 in0.0 mm
10:13 PM 57.4°F14.1°C 46.9°F8.3°C 68% Calm Calm -- 29.93 in1013.5 mb 0.00 in0.0 mm 0.00 in0.0 mm 0.00 in0.0 mm
10:18 PM 57.4°F14.1°C 47.3°F8.5°C 69% Calm Calm -- 29.94 in1013.9 mb 0.00 in0.0 mm 0.00 in0.0 mm 0.00 in0.0 mm
10:23 PM 57.6°F14.2°C 47.5°F8.6°C 69% Calm Calm -- 29.94 in1013.9 mb 0.00 in0.0 mm 0.00 in0.0 mm 0.00 in0.0 mm
10:28 PM 57.6°F14.2°C 47.5°F8.6°C 69% Calm Calm -- 29.93 in1013.5 mb 0.00 in0.0 mm 0.00 in0.0 mm 0.00 in0.0 mm
10:33 PM 57.6°F14.2°C 47.5°F8.6°C 69% Calm Calm -- 29.93 in1013.5 mb 0.00 in0.0 mm 0.00 in0.0 mm 0.00 in0.0 mm
10:38 PM 57.4°F14.1°C 47.3°F8.5°C 69% Calm Calm -- 29.93 in1013.5 mb 0.00 in0.0 mm 0.00 in0.0 mm 0.00 in0.0 mm
10:43 PM 57.0°F13.9°C 46.9°F8.3°C 69% Calm Calm -- 29.94 in1013.9 mb 0.00 in0.0 mm 0.00 in0.0 mm 0.00 in0.0 mm
10:48 PM 56.8°F13.8°C 47.1°F8.4°C 70% Calm Calm -- 29.95 in1014.2 mb 0.00 in0.0 mm 0.00 in0.0 mm 0.00 in0.0 mm
10:53 PM 56.7°F13.7°C 46.9°F8.3°C 70% Calm Calm -- 29.95 in1014.2 mb 0.00 in0.0 mm 0.00 in0.0 mm 0.00 in0.0 mm
10:58 PM 56.8°F13.8°C 47.5°F8.6°C 71% Calm Calm -- 29.95 in1014.2 mb 0.00 in0.0 mm 0.00 in0.0 mm 0.00 in0.0 mm
11:03 PM 57.0°F13.9°C 47.3°F8.5°C 70% Calm Calm -- 29.95 in1014.2 mb 0.00 in0.0 mm 0.00 in0.0 mm 0.00 in0.0 mm
11:08 PM 57.0°F13.9°C 47.3°F8.5°C 70% Calm Calm -- 29.95 in1014.2 mb 0.00 in0.0 mm 0.00 in0.0 mm 0.00 in0.0 mm
11:13 PM 57.0°F13.9°C 47.3°F8.5°C 70% Calm Calm -- 29.95 in1014.2 mb 0.00 in0.0 mm 0.00 in0.0 mm 0.00 in0.0 mm
11:18 PM 57.0°F13.9°C 47.3°F8.5°C 70% Calm Calm -- 29.95 in1014.2 mb 0.00 in0.0 mm 0.00 in0.0 mm 0.00 in0.0 mm
11:23 PM 56.7°F13.7°C 46.9°F8.3°C 70% Calm Calm -- 29.95 in1014.2 mb 0.00 in0.0 mm 0.00 in0.0 mm 0.00 in0.0 mm
11:28 PM 56.5°F13.6°C 46.8°F8.2°C 70% Calm Calm -- 29.96 in1014.6 mb 0.00 in0.0 mm 0.00 in0.0 mm 0.00 in0.0 mm
11:33 PM 56.3°F13.5°C 46.9°F8.3°C 71% Calm Calm -- 29.95 in1014.2 mb 0.00 in0.0 mm 0.00 in0.0 mm 0.00 in0.0 mm
11:38 PM 56.1°F13.4°C 46.8°F8.2°C 71% Calm Calm -- 29.95 in1014.2 mb 0.00 in0.0 mm 0.00 in0.0 mm 0.00 in0.0 mm
11:43 PM 56.3°F13.5°C 46.9°F8.3°C 71% Calm Calm -- 29.95 in1014.2 mb 0.00 in0.0 mm 0.00 in0.0 mm 0.00 in0.0 mm
11:48 PM 56.3°F13.5°C 46.9°F8.3°C 71% Calm Calm -- 29.96 in1014.6 mb 0.00 in0.0 mm 0.00 in0.0 mm 0.00 in0.0 mm
11:53 PM 56.5°F13.6°C 46.8°F8.2°C 70% Calm Calm -- 29.95 in1014.2 mb 0.00 in0.0 mm 0.00 in0.0 mm 0.00 in0.0 mm
11:58 PM 56.5°F13.6°C 46.8°F8.2°C 70% Calm Calm -- 29.95 in1014.2 mb 0.00 in0.0 mm 0.00 in0.0 mm 0.00 in0.0 mm